Date,TemperatureHighF,TemperatureAvgF,TemperatureLowF,DewpointHighF,DewpointAvgF,DewpointLowF,HumidityHigh,HumidityAvg,HumidityLow,PressureMaxIn,PressureMinIn,WindSpeedMaxMPH,WindSpeedAvgMPH,GustSpeedMaxMPH,PrecipitationSumIn
2013-1-1,21,15,9,13,8,3,81,73,61,30.35,30.20,10,3,13,0.00
2013-1-2,32,21,9,23,14,4,82,75,67,30.28,30.11,14,5,22,0.00
2013-1-3,31,25,14,27,20,9,86,79,68,30.42,30.16,20,6,24,0.00
2013-1-4,37,24,12,26,18,8,92,78,62,30.39,30.26,14,6,25,0.00
2013-1-5,37,32,24,34,27,20,92,85,78,30.26,30.02,19,6,24,0.02
2013-1-6,31,26,21,25,19,15,82,75,59,30.37,30.04,23,9,29,0.02
2013-1-7,41,31,22,29,24,17,85,75,58,30.35,30.10,14,5,25,0.00
2013-1-8,45,37,31,34,29,25,80,73,62,30.13,30.01,12,5,20,0.00
2013-1-9,50,39,31,36,32,27,87,74,51,30.50,30.07,15,4,18,0.00
2013-1-10,42,36,32,40,32,27,95,84,66,30.46,29.77,12,6,23,0.69
2013-1-11,56,50,42,51,46,40,96,88,75,29.78,29.61,16,8,25,0.69
2013-1-12,55,36,22,47,30,19,90,78,67,30.06,29.65,19,9,25,0.03
2013-1-13,22,17,13,19,11,7,90,75,69,30.36,29.99,18,9,24,0.02
2013-1-14,25,15,9,12,8,5,84,74,53,30.55,30.35,8,2,12,0.00
2013-1-15,28,17,7,16,10,3,92,74,54,30.48,30.18,7,1,9,0.00
2013-1-16,38,27,14,29,20,9,81,73,62,30.18,29.93,16,6,25,0.00
2013-1-17,36,29,23,32,20,14,85,71,50,30.47,30.13,15,5,20,0.00
2013-1-18,49,37,24,35,28,18,80,68,55,30.46,29.97,20,9,33,0.00
2013-1-19,54,44,28,39,33,14,76,66,52,30.17,29.82,28,12,41,0.00
2013-1-20,27,17,13,16,9,6,83,71,58,30.41,30.18,24,9,35,0.00
2013-1-21,13,8,5,7,0,-4,79,70,57,30.45,30.33,21,12,28,0.00
2013-1-22,16,8,2,5,-1,-4,77,66,49,30.53,30.41,15,4,20,0.00
2013-1-23,34,21,12,20,10,3,72,62,51,30.48,30.16,23,7,31,0.00
2013-1-24,23,15,8,12,4,-3,72,60,47,30.68,30.30,14,6,20,0.00
2013-1-25,40,28,20,22,16,8,71,60,47,30.31,30.06,17,7,26,0.00
2013-1-26,33,23,11,17,12,5,77,63,47,30.45,30.30,9,4,15,0.00
2013-1-27,45,33,26,44,29,16,95,85,65,30.33,29.84,13,8,24,0.34
2013-1-28,57,49,45,56,48,43,100,95,92,29.94,29.70,13,6,23,0.34
2013-1-29,62,53,36,58,50,34,95,91,87,29.70,29.44,17,7,30,1.02
2013-1-30,36,28,18,34,25,12,95,88,76,29.87,29.30,26,12,33,0.01
2013-1-31,22,12,5,17,6,-2,81,75,67,30.40,29.87,24,14,33,0.01
2013-2-1,23,10,0,18,2,-6,83,71,63,30.51,30.19,20,7,27,0.00
2013-2-2,27,22,18,23,16,11,88,78,70,30.18,30.06,16,6,22,0.01
2013-2-3,29,24,19,23,17,13,90,75,61,30.20,29.96,22,8,28,0.01
2013-2-4,35,28,20,26,21,16,84,76,66,30.02,29.80,13,5,20,0.00
2013-2-5,41,31,20,32,26,16,89,80,67,30.13,29.87,20,6,26,0.00
2013-2-6,47,36,22,35,30,20,92,79,61,30.21,30.00,12,4,20,0.01
2013-2-7,39,37,32,36,34,30,94,91,82,30.11,29.88,16,5,22,0.68
2013-2-8,32,30,28,30,26,24,93,85,80,30.39,30.11,13,5,18,0.68
2013-2-9,38,31,27,32,27,23,90,85,75,30.38,30.00,12,6,19,0.00
2013-2-10,54,43,35,50,38,30,94,85,61,30.00,29.39,20,11,34,0.07
2013-2-11,39,34,30,30,25,23,81,70,63,30.15,29.63,27,15,40,0.07
2013-2-12,42,33,27,29,26,23,85,75,56,30.17,29.94,12,4,15,0.00
2013-2-13,47,36,28,33,29,24,87,75,58,29.94,29.73,12,4,17,0.00
2013-2-14,41,38,32,33,30,27,83,76,66,30.09,29.72,22,10,29,0.00
2013-2-15,33,26,21,27,16,12,84,63,46,30.31,30.09,17,9,24,0.00
2013-2-16,30,22,14,17,13,8,80,69,57,30.29,30.19,14,6,20,0.00
2013-2-17,40,28,16,28,20,12,84,72,56,30.21,29.84,13,7,22,0.00
2013-2-18,55,38,23,46,32,17,92,80,64,29.85,29.49,21,11,30,0.60
2013-2-19,24,19,13,17,11,6,80,72,61,30.35,29.85,24,16,33,0.60
2013-2-20,21,14,5,13,7,-1,78,72,64,30.49,30.34,11,4,20,0.00
2013-2-21,27,22,14,25,18,10,93,85,78,30.39,29.87,17,8,26,0.10
2013-2-22,31,28,25,29,25,20,94,87,79,30.03,29.78,12,7,21,0.11
2013-2-23,29,24,20,21,18,14,81,76,68,30.04,29.99,10,4,14,0.00
2013-2-24,36,25,10,27,19,7,88,78,65,30.14,30.03,5,2,10,0.00
2013-2-25,40,32,23,33,27,20,89,81,68,30.12,29.85,16,5,24,0.00
2013-2-26,36,32,30,31,30,29,100,90,78,29.85,29.52,18,10,26,0.09
2013-2-27,32,31,30,31,29,28,100,94,94,29.87,29.66,15,8,20,0.10
2013-2-28,34,31,29,31,29,27,94,92,87,30.13,29.87,12,7,16,0.01
2013-3-1,30,28,25,27,24,21,93,85,74,30.29,30.11,10,4,15,0.02
2013-3-2,30,23,14,21,16,8,88,75,62,30.31,30.25,10,4,17,0.00
2013-3-3,31,21,8,21,14,4,89,74,60,30.25,30.06,8,2,13,0.00
2013-3-4,37,32,27,30,27,21,91,83,76,30.07,29.85,16,10,24,0.02
2013-3-5,32,30,29,30,27,23,93,85,74,30.18,29.88,21,10,29,0.04
2013-3-6,29,26,22,25,21,18,84,80,76,30.40,30.18,17,7,25,0.04
2013-3-7,34,27,23,26,22,18,88,81,73,30.45,30.37,7,3,12,0.00
2013-3-8,42,33,24,34,29,21,90,83,72,30.42,30.18,11,6,18,0.00
2013-3-9,44,39,36,40,36,32,94,89,83,30.18,29.76,12,6,20,0.59
2013-3-10,49,45,41,48,44,38,99,94,90,29.78,29.54,8,3,17,0.64
2013-3-11,41,33,29,40,31,23,95,91,76,29.95,29.63,23,10,29,0.01
2013-3-12,36,31,26,30,24,18,88,78,69,30.20,29.95,23,12,32,0.01
2013-3-13,36,28,22,20,18,16,86,67,47,30.43,30.20,21,10,29,0.00
2013-3-14,52,38,25,36,28,19,86,71,50,30.40,30.07,12,3,20,0.00
2013-3-15,52,42,31,44,36,28,90,79,67,30.06,29.66,12,3,16,0.00
2013-3-16,41,36,33,38,33,28,94,88,78,30.15,29.66,15,6,21,0.00
2013-3-17,38,33,28,29,26,21,84,76,66,30.18,29.89,13,8,20,0.00
2013-3-18,41,33,26,35,28,18,93,81,63,29.99,29.73,26,10,33,0.00
2013-3-19,40,29,20,20,15,11,73,57,37,30.21,29.96,22,12,30,0.00
2013-3-20,30,23,16,20,10,3,75,59,47,30.29,30.15,23,14,36,0.00
2013-3-21,37,24,14,17,12,7,77,60,41,30.17,30.02,12,3,15,0.00
2013-3-22,45,32,20,24,19,14,80,61,38,30.10,30.00,8,2,12,0.00
2013-3-23,48,38,29,29,25,23,91,60,42,30.11,29.95,14,5,22,0.01
2013-3-24,32,30,29,30,28,27,94,93,92,30.00,29.74,14,8,23,0.06
2013-3-25,34,31,28,29,27,25,94,86,72,30.20,29.86,16,8,24,0.07
2013-3-26,39,33,26,27,25,22,89,72,55,30.34,30.20,16,7,22,0.00
2013-3-27,44,35,26,28,25,20,84,66,47,30.40,30.32,8,2,12,0.00
2013-3-28,52,39,26,35,29,21,83,67,49,30.38,30.27,9,3,13,0.00
2013-3-29,60,46,34,39,33,28,82,63,38,30.30,30.19,11,3,13,0.00
2013-3-30,56,46,36,44,40,32,90,78,57,30.20,29.88,14,5,26,0.00
2013-3-31,59,49,38,46,39,28,94,71,41,30.01,29.83,25,10,33,0.00
2013-4-1,42,35,27,27,21,18,80,59,40,30.28,30.01,18,9,26,0.00
2013-4-2,46,35,23,24,20,15,83,58,32,30.37,30.28,18,5,23,0.00
2013-4-3,51,38,24,23,20,17,76,51,29,30.46,30.28,13,3,18,0.00
2013-4-4,61,46,31,36,26,20,67,48,28,30.28,30.01,12,3,20,0.00
2013-4-5,62,49,36,37,31,27,81,53,30,30.20,29.99,12,4,21,0.00
2013-4-6,70,58,46,51,40,27,68,51,38,29.99,29.60,21,11,32,0.00
2013-4-7,72,56,40,48,43,36,89,64,40,29.93,29.73,13,4,19,0.00
2013-4-8,73,63,55,60,56,45,94,78,59,29.82,29.53,19,6,35,0.87
2013-4-9,77,67,55,63,59,50,89,77,60,29.81,29.73,16,6,29,0.00
2013-4-10,55,46,42,50,43,39,94,91,86,29.94,29.64,18,8,24,1.38
2013-4-11,48,43,37,46,39,30,95,86,74,29.69,29.60,16,6,27,1.39
2013-4-12,44,40,37,35,33,31,87,78,68,29.95,29.64,18,10,26,0.00
2013-4-13,53,43,35,39,32,26,76,64,49,30.03,29.90,17,8,24,0.00
2013-4-14,76,61,46,55,47,37,90,63,39,29.91,29.50,17,10,33,0.68
2013-4-15,60,52,42,55,46,37,93,81,57,30.01,29.65,13,4,20,0.70
2013-4-16,50,44,37,41,36,32,86,74,61,30.22,29.99,12,4,17,0.01
2013-4-17,59,48,43,57,44,36,95,86,71,30.19,29.61,23,10,37,2.44
2013-4-18,62,51,38,60,48,31,96,90,74,29.71,29.40,26,10,37,0.20
2013-4-19,42,38,34,31,29,28,79,72,59,30.07,29.65,22,14,34,0.20
2013-4-20,51,40,30,32,28,25,84,65,44,30.35,30.07,11,4,16,0.00
2013-4-21,61,49,37,46,38,31,80,68,53,30.39,30.22,15,8,25,0.00
2013-4-22,69,58,44,50,42,36,81,58,35,30.23,29.96,14,6,21,0.02
2013-4-23,55,42,37,50,39,34,91,88,82,30.06,29.92,15,7,24,0.31
2013-4-24,52,42,34,35,32,29,92,67,41,30.16,30.03,17,8,23,0.31
2013-4-25,59,48,39,38,34,30,79,60,39,30.31,30.13,18,8,23,0.00
2013-4-26,64,54,43,48,43,36,78,67,54,30.28,30.20,18,8,32,0.00
2013-4-27,60,52,42,50,46,40,93,82,61,30.26,29.97,10,3,17,0.10
2013-4-28,72,59,49,54,50,47,94,76,49,29.97,29.81,10,3,15,0.11
2013-4-29,81,65,49,64,56,46,91,73,51,29.87,29.64,15,7,53,0.00
2013-4-30,86,75,65,61,58,54,82,59,34,29.86,29.65,17,8,28,0.00
2013-5-1,85,73,58,58,55,48,76,55,35,30.09,29.86,15,5,26,0.00
2013-5-2,58,48,39,48,42,37,91,80,69,30.24,30.08,17,9,25,0.09
2013-5-3,49,40,37,48,39,35,95,93,91,30.16,29.80,14,7,24,1.93
2013-5-4,62,54,47,56,51,45,99,91,80,30.03,29.81,9,3,17,0.06
2013-5-5,73,60,49,60,53,47,95,78,47,30.03,29.90,12,3,18,0.06
2013-5-6,76,65,55,55,52,50,87,65,42,30.03,29.94,12,3,20,0.00
2013-5-7,82,68,52,53,49,40,87,55,30,30.02,29.94,7,1,10,0.00
2013-5-8,83,69,53,58,52,46,82,58,34,30.01,29.92,9,1,13,0.00
2013-5-9,69,64,59,64,60,56,93,87,77,29.94,29.76,11,4,18,0.25
2013-5-10,60,54,48,58,51,45,94,88,82,30.00,29.80,16,5,22,0.25
2013-5-11,59,52,45,51,38,29,95,64,39,30.15,29.94,26,9,41,0.01
2013-5-12,58,48,37,34,31,28,77,53,36,30.23,30.11,17,6,25,0.01
2013-5-13,73,57,36,47,39,31,88,55,26,30.19,29.93,11,3,17,0.00
2013-5-14,91,74,57,66,57,44,74,56,41,29.93,29.64,17,7,25,0.00
2013-5-15,84,76,67,61,57,49,69,53,30,29.82,29.69,14,5,26,0.06
2013-5-16,83,72,61,65,60,56,90,69,47,29.90,29.79,9,3,15,0.14
2013-5-17,81,71,60,64,60,55,84,69,49,29.94,29.86,8,2,15,0.00
2013-5-18,82,72,62,67,63,60,94,76,55,29.97,29.82,9,3,14,0.00
2013-5-19,89,72,63,73,66,59,93,80,56,29.85,29.62,36,6,50,1.25
2013-5-20,83,70,61,66,62,58,91,76,50,29.75,29.52,18,7,26,0.26
2013-5-21,79,69,61,63,60,58,93,75,55,29.68,29.62,14,5,22,0.26
2013-5-22,70,63,59,59,56,54,89,78,59,29.81,29.62,13,5,22,0.00
2013-5-23,69,60,54,55,52,48,93,76,51,30.24,29.80,13,6,20,0.01
2013-5-24,70,58,46,48,44,39,92,63,36,30.42,30.24,11,3,15,0.01
2013-5-25,58,53,48,52,47,43,93,80,60,30.39,30.19,12,5,20,0.65
2013-5-26,64,57,51,60,54,48,94,89,82,30.22,29.98,14,7,23,0.54
2013-5-27,72,66,59,66,62,57,95,90,81,29.98,29.71,12,4,23,0.24
2013-5-28,79,70,63,72,66,60,93,87,77,29.88,29.63,26,6,35,0.51
2013-5-29,85,74,61,72,66,59,95,78,57,29.94,29.73,16,6,24,1.32
2013-5-30,83,71,63,70,65,59,93,80,61,29.79,29.64,19,8,34,0.61
2013-5-31,75,67,62,69,63,58,95,88,73,29.83,29.67,14,5,25,0.66
2013-6-1,76,67,62,65,61,57,94,81,56,29.81,29.64,15,6,20,0.66
2013-6-2,62,58,53,58,52,48,88,79,68,30.04,29.81,16,6,22,0.00
2013-6-3,71,60,48,54,50,46,93,72,48,30.12,29.99,8,2,13,0.00
2013-6-4,74,64,53,58,53,48,86,70,52,30.12,29.97,13,4,22,0.00
2013-6-5,79,68,58,63,59,55,92,74,52,30.02,29.85,6,2,10,0.04
2013-6-6,74,65,59,61,59,57,95,82,59,29.90,29.84,8,3,14,0.05
2013-6-7,72,63,57,57,55,52,92,75,56,29.95,29.88,8,3,14,0.00
2013-6-8,80,68,55,59,55,52,92,67,45,29.94,29.86,8,2,14,0.00
2013-6-9,73,67,62,64,60,56,91,78,66,29.89,29.72,11,5,20,0.09
2013-6-10,79,68,61,64,61,59,96,80,57,29.87,29.72,11,3,15,0.09
2013-6-11,91,76,61,74,66,57,91,73,52,29.91,29.75,11,3,19,0.00
2013-6-12,93,82,73,75,71,63,84,70,53,29.84,29.59,19,6,27,0.00
2013-6-13,85,75,66,65,60,56,88,61,40,29.97,29.68,22,6,30,0.00
2013-6-14,81,71,60,64,59,55,86,67,50,30.10,29.89,8,3,17,0.00
2013-6-15,80,72,66,72,66,62,92,85,71,30.03,29.84,17,4,29,0.50
2013-6-16,84,73,66,70,67,62,93,80,61,29.94,29.87,9,3,13,0.50
2013-6-17,87,76,64,70,66,60,95,73,48,29.94,29.86,13,2,22,0.02
2013-6-18,83,74,65,66,63,58,91,70,52,29.99,29.85,8,4,13,0.02
2013-6-19,89,74,59,63,58,53,83,61,36,30.08,29.99,6,2,12,0.00
2013-6-20,90,78,63,70,65,59,86,66,46,30.07,29.96,12,4,20,0.00
2013-6-21,92,80,74,75,70,67,83,72,56,30.01,29.87,14,6,25,0.00
2013-6-22,94,82,73,76,72,65,85,73,51,29.99,29.85,13,6,20,0.00
2013-6-23,86,75,68,74,67,63,88,77,63,30.00,29.81,15,4,21,0.89
2013-6-24,85,72,67,76,68,64,93,86,63,30.04,29.82,20,4,28,0.76
2013-6-25,90,79,70,77,72,67,93,80,58,29.87,29.74,13,4,21,0.01
2013-6-26,87,78,68,77,73,66,94,83,69,29.80,29.67,12,4,20,0.26
2013-6-27,88,79,71,74,70,67,92,76,54,29.84,29.75,18,4,24,0.26
2013-6-28,84,76,67,67,62,59,88,65,43,29.79,29.65,21,8,32,0.00
2013-6-29,74,68,64,66,63,61,91,84,68,29.78,29.63,15,6,23,0.09
2013-6-30,79,70,62,64,61,58,91,74,52,29.98,29.78,14,4,21,0.09
2013-7-1,80,70,59,58,55,51,81,61,38,30.04,29.97,13,4,22,0.00
2013-7-2,81,70,58,58,56,52,81,62,42,30.07,29.99,11,3,18,0.00
2013-7-3,82,69,58,60,56,52,88,67,41,30.06,29.98,5,1,9,0.00
2013-7-4,87,74,62,65,61,55,91,67,41,30.06,29.96,7,2,13,0.00
2013-7-5,87,76,64,67,63,59,88,67,46,30.03,29.94,10,3,15,0.00
2013-7-6,91,77,64,71,66,62,93,71,48,30.00,29.90,9,4,15,0.00
2013-7-7,90,80,68,74,69,63,86,71,53,29.96,29.90,11,4,17,0.00
2013-7-8,87,79,72,76,72,68,89,79,67,29.99,29.91,12,5,24,0.10
2013-7-9,91,83,77,78,75,71,86,76,65,29.95,29.82,11,3,17,0.10
2013-7-10,86,79,66,74,67,59,88,68,51,30.00,29.80,15,5,20,0.00
2013-7-11,85,72,60,64,60,57,92,67,41,30.08,30.00,9,2,13,0.00
2013-7-12,85,77,61,64,59,55,83,56,41,30.12,30.02,8,2,15,0.00
2013-7-13,86,73,58,65,61,54,88,68,47,30.10,30.02,7,2,12,0.00
2013-7-14,88,77,64,70,66,60,91,70,49,30.12,30.06,10,3,15,0.00
2013-7-15,93,82,71,76,72,67,90,73,53,30.20,30.12,6,2,12,0.00
2013-7-16,93,82,73,77,74,70,94,76,57,30.25,30.18,6,2,11,0.00
2013-7-17,97,85,72,79,74,69,92,72,49,30.28,30.13,6,1,7,0.00
2013-7-18,96,85,75,78,74,72,90,72,50,30.16,29.93,7,2,12,0.00
2013-7-19,96,85,76,75,73,71,86,68,48,29.93,29.76,10,4,16,0.00
2013-7-20,89,81,71,72,67,63,82,64,42,29.89,29.80,9,3,13,0.02
2013-7-21,82,73,67,73,68,63,93,85,69,29.89,29.79,8,2,13,0.35
2013-7-22,90,76,66,76,70,63,96,81,62,29.85,29.71,14,2,21,0.35
2013-7-23,79,71,65,68,64,60,92,77,60,29.92,29.72,12,4,18,0.00
2013-7-24,78,68,59,60,58,56,92,70,49,30.04,29.91,8,2,12,0.00
2013-7-25,83,70,55,65,59,52,90,71,51,30.09,30.00,6,2,12,0.00
2013-7-26,81,70,60,71,62,55,94,78,53,30.00,29.87,16,4,23,0.41
2013-7-27,68,61,53,56,51,47,91,71,51,30.00,29.93,18,7,26,0.41
2013-7-28,73,62,51,57,52,47,88,71,53,30.05,29.95,14,4,21,0.00
2013-7-29,79,67,51,62,56,48,94,72,49,30.14,30.05,5,1,8,0.00
2013-7-30,70,67,64,67,64,60,95,90,76,30.09,29.99,8,3,15,0.56
2013-7-31,79,71,66,69,66,64,96,87,67,30.05,29.96,9,3,12,0.57
2013-8-1,87,74,63,68,64,60,95,74,46,30.04,29.90,9,2,13,0.00
2013-8-2,87,76,68,72,67,63,91,75,55,29.94,29.84,8,3,14,0.42
2013-8-3,82,72,63,64,61,57,89,70,44,30.12,29.94,9,2,14,0.42
2013-8-4,82,70,57,62,58,54,92,68,45,30.17,30.05,6,1,9,0.00
2013-8-5,80,70,61,72,64,57,92,84,75,30.07,29.82,8,3,14,0.00
2013-8-6,90,76,66,77,71,64,96,84,59,29.88,29.74,7,2,15,0.00
2013-8-7,87,77,69,75,70,64,93,80,58,29.93,29.76,10,3,14,0.00
2013-8-8,82,72,62,69,65,60,92,79,59,29.97,29.91,8,2,12,0.00
2013-8-9,84,73,62,70,65,60,94,78,55,30.06,29.95,8,1,10,0.00
2013-8-10,82,71,61,66,60,57,91,72,46,30.15,30.06,9,3,15,0.00
2013-8-11,86,73,58,70,62,55,92,72,52,30.12,30.00,8,2,12,0.00
2013-8-12,81,73,65,72,65,60,89,79,60,30.01,29.88,11,2,15,0.01
2013-8-13,76,66,56,62,57,50,92,73,50,30.15,29.95,11,3,16,0.01
2013-8-14,76,63,48,58,52,46,93,71,44,30.22,30.12,7,1,12,0.00
2013-8-15,74,63,56,59,55,51,90,77,52,30.17,30.08,4,0,13,0.00
2013-8-16,80,67,52,61,56,49,92,70,45,30.17,30.11,8,1,12,0.00
2013-8-17,80,68,53,62,57,51,93,71,48,30.19,30.11,8,2,14,0.00
2013-8-18,83,70,53,66,59,50,93,73,52,30.18,30.06,9,1,14,0.00
2013-8-19,86,73,60,69,64,56,91,74,54,30.10,29.99,7,2,12,0.00
2013-8-20,88,77,66,70,66,62,88,72,50,30.06,29.97,9,3,15,0.00
2013-8-21,90,78,67,71,68,64,90,73,52,30.05,29.95,10,3,17,0.00
2013-8-22,83,76,70,73,70,66,89,80,70,30.07,29.98,12,3,18,0.00
2013-8-23,86,75,65,71,67,63,94,79,58,30.11,30.04,8,2,13,0.00
2013-8-24,89,76,64,74,68,61,92,77,60,30.18,30.09,8,3,13,0.00
2013-8-25,92,78,68,73,68,64,88,72,48,30.21,30.10,12,4,18,0.00
2013-8-26,94,80,67,76,70,63,90,72,52,30.14,29.96,7,3,15,0.00
2013-8-27,96,82,72,75,70,65,90,69,47,29.99,29.85,12,4,18,0.00
2013-8-28,97,84,73,77,71,65,90,67,47,29.95,29.89,11,3,14,0.00
2013-8-29,92,81,72,78,75,69,94,82,64,30.01,29.90,8,2,12,0.00
2013-8-30,99,85,75,79,75,71,95,74,45,29.91,29.73,7,3,13,0.01
2013-8-31,89,80,72,76,72,68,91,77,63,29.77,29.71,10,3,15,0.00
2013-9-1,89,76,67,74,67,60,96,74,52,29.85,29.73,12,4,19,0.00
2013-9-2,80,69,60,63,58,55,92,71,43,29.99,29.84,13,4,15,0.00
2013-9-3,81,65,51,60,55,48,92,72,44,30.09,29.99,6,1,12,0.00
2013-9-4,88,71,52,65,58,50,93,67,42,30.13,30.04,8,1,12,0.00
2013-9-5,90,76,62,70,64,57,86,66,47,30.16,30.09,6,1,10,0.00
2013-9-6,89,75,62,68,64,59,92,71,42,30.14,29.96,8,3,14,0.00
2013-9-7,94,78,64,73,67,60,84,70,47,29.98,29.83,11,3,20,0.00
2013-9-8,85,78,73,74,70,68,90,78,67,29.92,29.79,10,4,20,0.00
2013-9-9,100,83,71,73,70,63,94,67,37,29.87,29.78,10,4,15,0.00
2013-9-10,97,83,71,71,65,62,76,57,37,29.99,29.87,12,5,18,0.00
2013-9-11,91,79,72,70,67,64,85,69,49,30.04,29.98,11,3,17,0.00
2013-9-12,82,72,62,69,59,49,94,67,33,30.09,29.99,15,5,23,0.15
2013-9-13,73,61,51,51,46,39,85,60,30,30.19,30.08,11,3,15,0.00
2013-9-14,74,59,45,50,46,40,88,64,39,30.18,29.98,8,3,14,0.00
2013-9-15,67,62,57,62,54,45,92,77,62,30.17,29.94,9,4,16,0.20
2013-9-16,70,60,54,56,53,48,93,77,56,30.33,30.17,10,4,15,0.20
2013-9-17,69,60,50,61,55,47,92,82,70,30.28,30.05,8,4,13,0.00
2013-9-18,89,74,61,72,66,57,91,77,55,30.05,29.83,12,5,20,0.00
2013-9-19,93,79,66,72,68,63,93,73,45,29.89,29.71,18,5,25,0.92
2013-9-20,70,65,56,66,58,51,95,79,53,29.91,29.80,15,6,20,0.94
2013-9-21,69,56,49,52,49,46,90,78,50,29.97,29.89,13,6,20,0.00
2013-9-22,73,58,46,54,49,44,93,74,48,30.04,29.93,7,2,12,0.00
2013-9-23,74,60,48,56,50,45,91,72,48,30.04,29.92,9,4,20,0.00
2013-9-24,76,63,51,60,54,46,89,73,57,29.95,29.82,9,4,14,0.00
2013-9-25,80,67,54,61,56,50,88,70,51,29.91,29.84,9,3,14,0.00
2013-9-26,84,69,55,65,58,51,89,70,49,29.98,29.88,10,3,17,0.00
2013-9-27,82,69,58,65,57,53,84,68,45,30.07,29.95,12,5,17,0.00
2013-9-28,79,66,56,68,60,53,92,80,61,30.02,29.87,20,6,26,0.07
2013-9-29,74,59,45,55,47,43,95,70,36,30.09,29.97,6,1,12,0.09
2013-9-30,78,62,48,58,51,43,91,69,44,29.97,29.83,13,4,19,0.00
2013-10-1,84,70,60,68,62,58,94,78,52,29.94,29.83,12,4,21,0.00
2013-10-2,86,72,60,68,63,58,95,76,47,30.02,29.88,9,2,15,0.00
2013-10-3,80,71,66,70,66,63,94,86,71,29.89,29.76,13,4,23,0.02
2013-10-4,87,75,66,72,68,63,95,79,56,29.89,29.81,14,5,20,0.02
2013-10-5,73,66,51,69,61,47,93,84,70,29.86,29.79,13,4,18,0.01
2013-10-6,50,47,41,47,42,37,92,83,66,29.85,29.77,10,4,16,0.04
2013-10-7,72,57,46,49,47,44,93,72,42,30.08,29.85,12,4,16,0.04
2013-10-8,77,62,48,52,48,44,87,63,36,30.16,30.06,10,3,18,0.00
2013-10-9,75,59,46,52,47,42,91,66,36,30.18,30.08,8,2,12,0.00
2013-10-10,77,62,48,58,51,44,90,71,47,30.13,29.96,10,2,16,0.00
2013-10-11,78,65,54,60,55,51,94,72,48,29.99,29.82,15,6,25,0.00
2013-10-12,71,63,47,60,49,39,88,63,33,30.22,29.85,17,5,22,0.00
2013-10-13,67,52,39,43,36,32,86,58,28,30.42,30.21,10,1,13,0.00
2013-10-14,66,53,38,46,39,32,86,61,43,30.37,30.00,12,4,20,0.00
2013-10-15,68,59,48,62,51,41,94,75,51,30.00,29.80,15,7,23,0.02
2013-10-16,52,50,48,44,43,41,82,76,72,29.99,29.91,16,6,22,0.02
2013-10-17,63,52,46,46,41,37,92,68,38,29.97,29.83,11,3,20,0.01
2013-10-18,52,47,42,42,39,37,89,73,59,30.03,29.88,16,6,23,0.00
2013-10-19,57,47,35,40,37,32,92,70,44,29.99,29.82,13,5,22,0.00
2013-10-20,68,54,41,46,42,36,88,67,42,29.86,29.70,12,4,21,0.00
2013-10-21,57,44,32,46,32,25,84,66,41,30.04,29.83,19,7,29,0.01
2013-10-22,43,38,32,41,35,26,92,88,78,30.03,29.83,10,3,15,0.22
2013-10-23,45,38,32,35,31,28,90,76,54,30.12,30.02,12,5,16,0.22
2013-10-24,41,36,31,35,27,23,88,70,54,30.40,30.10,15,6,20,0.01
2013-10-25,55,41,27,34,28,23,89,63,33,30.47,30.11,13,4,20,0.00
2013-10-26,54,46,35,37,30,27,73,56,37,30.15,29.97,20,7,29,0.00
2013-10-27,58,42,27,35,30,23,87,63,40,30.13,29.97,11,2,18,0.00
2013-10-28,65,48,34,40,34,28,80,62,35,30.28,30.04,9,3,16,0.00
2013-10-29,56,48,40,51,42,37,94,82,62,30.27,30.05,9,5,15,0.00
2013-10-30,63,57,53,62,56,51,97,95,93,30.05,29.69,19,5,34,2.65
2013-10-31,63,54,45,62,53,43,96,93,90,29.69,29.36,14,7,20,0.36
2013-11-1,51,47,43,45,42,39,94,84,73,29.81,29.51,16,4,20,0.36
2013-11-2,52,44,33,42,36,29,88,73,50,30.18,29.80,17,7,25,0.00
2013-11-3,55,43,30,38,33,27,90,71,48,30.27,30.10,11,4,18,0.01
2013-11-4,57,51,44,46,41,36,76,70,62,30.15,30.03,17,7,26,0.01
2013-11-5,56,54,52,54,50,46,93,88,75,30.20,29.87,14,7,28,0.09
2013-11-6,57,45,33,56,40,27,94,83,67,30.28,29.79,21,9,29,0.01
2013-11-7,46,37,28,37,30,24,92,77,60,30.33,30.27,17,4,24,0.01
2013-11-8,50,41,28,37,31,24,88,69,54,30.34,29.91,17,6,25,0.00
2013-11-9,61,52,44,40,38,33,77,60,43,30.23,29.91,19,10,26,0.00
2013-11-10,49,40,32,34,31,26,83,69,52,30.44,30.22,13,4,20,0.00
2013-11-11,51,40,24,39,31,18,92,72,58,30.62,30.11,15,6,23,0.00
2013-11-12,30,22,15,20,15,11,84,74,58,30.84,30.62,13,4,17,0.00
2013-11-13,45,31,18,22,18,13,84,59,35,30.69,30.19,14,5,24,0.00
2013-11-14,54,43,34,29,25,19,59,49,38,30.19,29.94,16,8,26,0.00
2013-11-15,51,44,37,38,32,24,80,64,53,29.99,29.84,12,5,20,0.00
2013-11-16,61,54,43,56,50,37,92,87,80,29.84,29.49,16,9,31,0.09
2013-11-17,71,56,44,64,50,39,93,82,67,29.91,29.18,33,10,48,0.22
2013-11-18,47,40,30,39,32,25,85,73,52,30.32,29.92,21,8,26,0.22
2013-11-19,48,36,26,32,28,23,89,74,53,30.37,30.19,11,4,18,0.00
2013-11-20,42,37,34,39,33,29,92,84,74,30.20,30.01,12,6,17,0.42
2013-11-21,47,44,38,44,40,36,92,88,84,30.29,30.05,11,3,14,0.01
2013-11-22,38,32,21,36,28,18,92,86,76,30.59,30.28,16,7,23,0.01
2013-11-23,23,20,14,18,12,6,88,72,57,30.81,30.57,17,8,28,0.01
2013-11-24,29,19,8,14,9,4,86,68,43,30.81,30.38,10,3,17,0.00
2013-11-25,36,30,24,26,20,13,77,67,58,30.38,30.14,13,5,20,0.00
2013-11-26,32,26,18,26,18,8,92,71,49,30.31,30.12,20,8,29,0.00
2013-11-27,27,20,13,12,9,7,83,64,49,30.40,30.23,11,4,17,0.00
2013-11-28,37,27,18,22,17,12,79,66,52,30.54,30.17,14,4,20,0.00
2013-11-29,38,26,14,24,18,10,89,73,52,30.63,30.34,10,4,18,0.00
2013-11-30,51,39,30,36,31,24,85,72,55,30.34,30.07,12,4,20,0.00
2013-12-1,48,38,31,35,31,28,90,75,56,30.14,29.95,5,1,8,0.00
2013-12-2,45,38,32,36,33,29,91,82,70,29.95,29.64,9,4,20,0.00
2013-12-3,52,43,35,48,41,33,95,92,84,29.66,29.55,10,4,18,0.00
2013-12-4,55,45,28,53,43,24,96,92,83,29.87,29.48,20,6,26,0.00
2013-12-5,28,21,17,24,13,9,83,71,64,30.37,29.86,22,12,30,0.00
2013-12-6,17,14,11,10,5,3,76,68,54,30.67,30.36,14,8,20,0.00
2013-12-7,19,11,3,5,2,-2,81,68,49,30.81,30.58,10,4,15,0.00
2013-12-8,22,20,14,20,15,6,91,81,67,30.59,30.05,14,5,18,0.01
2013-12-9,22,13,2,19,7,-3,90,77,64,30.34,30.07,18,7,26,0.01
2013-12-10,26,17,2,14,7,-3,89,66,52,30.33,30.12,25,7,32,0.00
2013-12-11,22,16,4,16,8,-5,85,70,56,30.68,30.27,18,7,23,0.00
2013-12-13,31,31,30,29,29,28,93,93,92,30.03,30.00,7,4,9,0.30
2013-12-14,30,26,15,29,23,11,100,90,83,30.15,29.94,13,6,20,0.32
2013-12-15,19,16,13,13,11,8,92,81,73,30.20,30.10,17,4,21,0.01
2013-12-16,24,18,12,22,15,9,92,87,83,30.17,30.03,9,3,13,0.01
2013-12-17,37,27,18,30,20,14,92,76,52,30.24,30.11,20,6,29,0.00
2013-12-18,43,32,18,34,22,11,80,68,53,30.23,29.83,15,6,26,0.00
2013-12-19,48,42,40,42,37,33,92,82,74,29.86,29.72,11,4,18,0.00
2013-12-20,44,32,27,42,30,25,94,94,92,29.90,29.70,9,1,16,0.01
2013-12-21,31,28,26,29,26,23,93,92,91,29.90,29.66,0,0,0,0.01
2013-12-22,31,25,17,29,23,14,94,91,84,30.30,29.67,13,0,15,0.19
2013-12-23,18,7,0,16,1,-7,92,75,68,30.62,30.30,15,6,21,0.00
2013-12-24,20,6,-7,14,-1,-13,80,73,65,30.67,30.34,9,4,16,0.00
2013-12-25,31,26,20,27,22,14,91,85,76,30.34,30.19,12,5,18,0.00
2013-12-26,38,30,18,31,24,14,87,79,70,30.31,30.16,12,4,20,0.00
2013-12-27,43,35,26,34,29,23,89,81,69,30.33,30.14,12,5,18,0.00
2013-12-28,50,42,36,38,34,31,89,73,60,30.14,29.83,15,6,22,0.00
2013-12-29,40,19,4,32,14,-4,89,79,68,30.37,29.83,22,12,31,0.00
2013-12-30,18,9,0,13,1,-7,79,72,60,30.41,30.22,9,2,13,0.00
2013-12-31,25,17,10,18,12,7,92,80,71,30.42,30.22,12,5,21,0.00
2014-1-1,16,15,13,13,11,9,88,84,80,30.27,30.20,14,6,21,0.00
2014-1-2,14,10,-1,9,4,-6,84,79,73,30.54,30.25,13,6,18,0.00